Time;durP1;ratioP1;P1;durP2;ratioP2;P2;SDS_P1;SDS_P2;PMS_P1;PMS_P2;Temp;Humidity;BMP_temperature;BMP_pressure;BME280_temperature;BME280_humidity;BME280_pressure;Samples;Min_cycle;Max_cycle;Signal;HPM_P1;HPM_P2
2022/01/27 00:00:38;;;;;;;43.65;29.75;;;;;;;2.98;100.00;102783.03;5323874;28;20039;-85
2022/01/27 00:03:22;;;;;;;47.75;31.30;;;;;;;2.95;100.00;102789.28;5321703;28;20434;-85
2022/01/27 00:06:01;;;;;;;44.08;27.33;;;;;;;2.87;100.00;102770.19;5323788;27;20051;-85
2022/01/27 00:08:44;;;;;;;45.30;27.77;;;;;;;2.91;100.00;102771.84;5324624;27;20391;-86
2022/01/27 00:11:16;;;;;;;47.47;29.20;;;;;;;2.92;100.00;102767.41;5322689;28;20039;-85
2022/01/27 00:13:59;;;;;;;43.15;28.88;;;;;;;2.93;100.00;102755.94;5323791;27;20024;-85
2022/01/27 00:16:34;;;;;;;47.75;31.17;;;;;;;2.94;100.00;102749.78;5321602;28;20035;-85
2022/01/27 00:19:06;;;;;;;48.85;30.83;;;;;;;2.95;100.00;102725.16;5321893;28;20030;-85
2022/01/27 00:21:37;;;;;;;42.95;28.30;;;;;;;2.80;100.00;102708.03;5322178;28;20019;-86
2022/01/27 00:24:09;;;;;;;45.92;29.33;;;;;;;2.95;100.00;102733.06;5323934;27;20476;-86
2022/01/27 00:26:41;;;;;;;43.47;28.15;;;;;;;2.95;100.00;102730.44;5322356;27;20089;-85
2022/01/27 00:29:12;;;;;;;43.30;28.50;;;;;;;2.98;100.00;102728.56;5319716;27;20127;-86
2022/01/27 00:31:44;;;;;;;44.78;27.33;;;;;;;2.92;100.00;102726.09;5324174;27;20016;-86
2022/01/27 00:34:15;;;;;;;44.92;30.08;;;;;;;2.94;100.00;102728.69;5322333;27;20417;-86
2022/01/27 00:36:46;;;;;;;47.58;30.25;;;;;;;2.93;100.00;102726.94;5324196;27;20081;-86
2022/01/27 00:39:18;;;;;;;39.38;26.80;;;;;;;3.00;100.00;102729.38;5323150;28;20345;-86
2022/01/27 00:41:49;;;;;;;39.90;28.52;;;;;;;3.00;100.00;102731.16;5324946;27;20155;-86
2022/01/27 00:44:21;;;;;;;41.05;26.58;;;;;;;3.07;100.00;102723.91;5324222;27;20036;-86
2022/01/27 00:46:52;;;;;;;47.00;29.10;;;;;;;3.11;100.00;102730.81;5321459;27;20020;-86
2022/01/27 00:49:25;;;;;;;42.17;27.60;;;;;;;3.10;100.00;102724.66;5324273;27;20097;-86
2022/01/27 00:51:57;;;;;;;46.30;29.83;;;;;;;3.08;100.00;102713.31;5323579;27;20157;-86
2022/01/27 00:54:30;;;;;;;34.88;21.45;;;;;;;3.14;100.00;102709.63;5323541;27;20031;-86
2022/01/27 00:57:10;;;;;;;44.70;28.55;;;;;;;3.10;100.00;102703.56;5323436;27;20031;-85
2022/01/27 01:07:59;;;;;;;42.65;25.45;;;;;;;3.26;100.00;102696.06;5320978;28;20028;-86
2022/01/27 01:11:13;;;;;;;41.03;25.57;;;;;;;3.18;100.00;102698.91;5322804;27;20039;-86
2022/01/27 01:14:18;;;;;;;41.60;26.42;;;;;;;3.18;100.00;102701.56;5322338;28;20491;-86
2022/01/27 01:16:42;;;;;;;39.47;27.42;;;;;;;3.13;100.00;102677.09;5322797;28;20408;-86
2022/01/27 01:19:26;;;;;;;42.10;26.40;;;;;;;3.26;100.00;102689.91;5329182;27;20024;-86
2022/01/27 01:30:48;;;;;;;42.92;26.42;;;;;;;3.24;100.00;102679.38;5329487;28;20563;-85
2022/01/27 01:33:24;;;;;;;37.90;25.58;;;;;;;3.22;100.00;102666.25;5322849;27;20430;-86
2022/01/27 01:36:12;;;;;;;35.58;21.88;;;;;;;3.31;100.00;102674.78;5322641;27;20028;-86
2022/01/27 01:38:44;;;;;;;38.65;25.92;;;;;;;3.27;100.00;102663.47;5325080;28;20422;-86
2022/01/27 01:41:15;;;;;;;41.00;26.45;;;;;;;3.31;100.00;102658.97;5327380;27;20056;-86
2022/01/27 01:43:47;;;;;;;39.95;27.77;;;;;;;3.32;100.00;102642.22;5323330;27;20025;-86
2022/01/27 01:46:18;;;;;;;38.53;25.67;;;;;;;3.31;100.00;102629.94;5326071;27;20020;-86
2022/01/27 01:48:49;;;;;;;40.72;26.90;;;;;;;3.35;100.00;102640.34;5324745;27;20020;-86
2022/01/27 01:51:27;;;;;;;42.08;26.80;;;;;;;3.28;100.00;102619.50;5326730;27;20160;-86
2022/01/27 01:53:58;;;;;;;40.65;25.95;;;;;;;3.35;100.00;102640.34;5326304;27;20621;-86
2022/01/27 01:56:30;;;;;;;37.30;24.00;;;;;;;3.40;100.00;102632.25;5326381;27;20131;-86
2022/01/27 01:59:02;;;;;;;45.05;26.50;;;;;;;3.33;100.00;102655.38;5325300;27;20336;-86
2022/01/27 02:01:35;;;;;;;39.45;26.42;;;;;;;3.37;100.00;102651.72;5325715;27;20081;-86
2022/01/27 02:04:10;;;;;;;40.03;25.10;;;;;;;3.39;100.00;102631.41;5326186;27;20024;-86
2022/01/27 02:06:53;;;;;;;38.13;28.58;;;;;;;3.35;100.00;102643.00;5325802;27;20040;-86
2022/01/27 02:18:03;;;;;;;39.03;24.90;;;;;;;3.48;100.00;102587.16;5326621;28;20579;-86
2022/01/27 02:20:39;;;;;;;41.40;25.52;;;;;;;3.44;100.00;102588.16;5323014;28;20028;-86
2022/01/27 02:23:10;;;;;;;38.93;26.47;;;;;;;3.38;100.00;102573.41;5325874;27;20031;-86
2022/01/27 02:25:42;;;;;;;36.17;24.05;;;;;;;3.38;100.00;102590.13;5326036;27;20044;-86
2022/01/27 02:28:13;;;;;;;42.83;26.63;;;;;;;3.34;100.00;102583.22;5325979;27;20407;-86
2022/01/27 02:30:46;;;;;;;31.40;17.67;;;;;;;3.47;100.00;102593.34;5325405;27;20028;-86
2022/01/27 02:33:29;;;;;;;39.40;27.05;;;;;;;3.45;100.00;102603.09;5325853;27;20017;-86
2022/01/27 02:36:03;;;;;;;39.42;23.83;;;;;;;3.46;100.00;102600.41;5325933;27;20025;-86
2022/01/27 02:38:35;;;;;;;37.75;23.60;;;;;;;3.41;100.00;102591.78;5325969;27;20480;-86
2022/01/27 02:41:07;;;;;;;42.13;25.95;;;;;;;3.47;100.00;102599.50;5324814;27;20031;-86
2022/01/27 02:43:38;;;;;;;42.00;25.15;;;;;;;3.48;100.00;102581.88;5326112;27;20388;-86
2022/01/27 02:46:19;;;;;;;39.22;26.23;;;;;;;3.48;100.00;102587.16;5325049;27;20036;-86
2022/01/27 02:48:51;;;;;;;37.42;23.27;;;;;;;3.46;100.00;102581.09;5325651;27;20039;-86
2022/01/27 02:51:22;;;;;;;38.17;23.17;;;;;;;3.40;100.00;102563.66;5323097;27;20032;-86
2022/01/27 02:53:56;;;;;;;40.15;24.63;;;;;;;3.55;100.00;102559.66;5326253;27;20368;-86
2022/01/27 02:56:28;;;;;;;38.17;23.45;;;;;;;3.54;100.00;102568.47;5326498;27;20043;-86
2022/01/27 02:58:59;;;;;;;38.22;24.73;;;;;;;3.49;100.00;102555.44;5326204;27;20067;-86
2022/01/27 03:01:30;;;;;;;41.50;25.08;;;;;;;3.58;100.00;102560.41;5325739;27;20085;-86
2022/01/27 03:04:02;;;;;;;36.25;20.27;;;;;;;3.58;100.00;102559.53;5326207;28;20039;-85
2022/01/27 03:06:33;;;;;;;41.38;24.23;;;;;;;3.55;100.00;102547.31;5325151;27;20044;-86
2022/01/27 03:09:05;;;;;;;38.78;22.40;;;;;;;3.53;100.00;102535.94;5325995;27;20066;-86
2022/01/27 03:11:48;;;;;;;37.13;23.27;;;;;;;3.55;100.00;102526.19;5313143;27;20032;-86
2022/01/27 03:14:22;;;;;;;35.65;23.60;;;;;;;3.50;100.00;102538.69;5325499;28;20089;-86
2022/01/27 03:16:58;;;;;;;37.70;22.10;;;;;;;3.56;100.00;102546.41;5328297;27;20058;-86
2022/01/27 03:19:30;;;;;;;38.13;25.83;;;;;;;3.63;100.00;102547.03;5327209;27;20107;-85
2022/01/27 03:22:03;;;;;;;33.40;23.00;;;;;;;3.58;100.00;102543.72;5327401;27;20024;-86
2022/01/27 03:24:36;;;;;;;36.22;22.58;;;;;;;3.55;100.00;102541.19;5327034;27;20048;-85
2022/01/27 03:27:17;;;;;;;38.65;22.77;;;;;;;3.50;100.00;102527.28;5325926;27;20081;-86
2022/01/27 03:29:49;;;;;;;35.30;21.98;;;;;;;3.47;100.00;102524.75;5326824;28;20473;-85
2022/01/27 03:32:20;;;;;;;39.50;23.02;;;;;;;3.41;100.00;102510.00;5325299;27;20073;-86
2022/01/27 03:34:52;;;;;;;39.47;23.73;;;;;;;3.37;100.00;102498.72;5325801;27;20020;-85
2022/01/27 03:37:23;;;;;;;39.45;24.00;;;;;;;3.38;100.00;102511.00;5317432;27;20122;-86
2022/01/27 03:39:54;;;;;;;41.08;23.55;;;;;;;3.39;100.00;102509.22;5325098;27;20171;-86
2022/01/27 03:42:27;;;;;;;35.50;24.88;;;;;;;3.37;100.00;102518.97;5325716;27;20020;-86
2022/01/27 03:44:58;;;;;;;36.15;23.90;;;;;;;3.36;100.00;102520.72;5324815;27;20035;-86
2022/01/27 03:47:29;;;;;;;36.88;22.25;;;;;;;3.29;100.00;102513.09;5320012;28;20388;-86
2022/01/27 03:50:01;;;;;;;41.20;26.83;;;;;;;3.32;100.00;102505.06;5327534;27;20026;-86
2022/01/27 03:52:32;;;;;;;39.47;24.35;;;;;;;3.37;100.00;102519.81;5325779;27;20036;-86
2022/01/27 03:55:04;;;;;;;40.55;25.27;;;;;;;3.38;100.00;102513.63;5325528;27;20415;-86
2022/01/27 03:57:35;;;;;;;37.38;21.30;;;;;;;3.45;100.00;102522.16;5324277;27;20035;-86
2022/01/27 04:00:08;;;;;;;37.30;22.58;;;;;;;3.44;100.00;102506.38;5322727;27;20088;-85
2022/01/27 04:02:51;;;;;;;40.90;23.23;;;;;;;3.56;100.00;102504.19;5322629;27;20039;-86
2022/01/27 04:05:22;;;;;;;41.28;24.00;;;;;;;3.53;100.00;102498.16;5324861;27;20055;-86
2022/01/27 04:07:57;;;;;;;36.92;23.52;;;;;;;3.50;100.00;102496.47;5325279;27;20027;-86
2022/01/27 04:10:28;;;;;;;35.00;21.25;;;;;;;3.56;100.00;102472.53;5324212;27;20107;-86
2022/01/27 04:13:01;;;;;;;36.25;22.85;;;;;;;3.56;100.00;102490.13;5324535;27;20138;-86
2022/01/27 04:15:33;;;;;;;40.40;25.25;;;;;;;3.57;100.00;102468.94;5322729;28;20185;-86
2022/01/27 04:18:05;;;;;;;33.95;19.75;;;;;;;3.58;100.00;102465.41;5322682;28;20426;-86
2022/01/27 04:20:38;;;;;;;41.15;23.83;;;;;;;3.57;100.00;102471.59;5324246;27;20034;-86
2022/01/27 04:23:09;;;;;;;36.58;21.42;;;;;;;3.46;100.00;102472.91;5320417;27;20020;-85
2022/01/27 04:25:41;;;;;;;40.60;22.35;;;;;;;3.40;100.00;102479.25;5323156;27;20467;-86
2022/01/27 04:28:18;;;;;;;35.83;21.83;;;;;;;3.46;100.00;102470.28;5319903;28;20016;-86
2022/01/27 04:30:49;;;;;;;;;;;;;;;3.48;100.00;102482.47;5323811;27;20039;-86
2022/01/27 04:33:25;;;;;;;33.75;19.88;;;;;;;3.47;100.00;102471.97;5324504;28;19912;-86
2022/01/27 04:35:59;;;;;;;35.78;21.98;;;;;;;3.51;100.00;102465.69;5323219;27;20035;-86
2022/01/27 04:38:48;;;;;;;35.22;21.73;;;;;;;3.50;100.00;102470.09;5320928;28;20039;-86
2022/01/27 04:41:47;;;;;;;36.75;23.60;;;;;;;3.50;100.00;102453.41;5323039;28;20085;-86
2022/01/27 04:44:28;;;;;;;36.17;20.38;;;;;;;3.45;100.00;102450.94;5323190;27;20449;-86
2022/01/27 04:47:07;;;;;;;35.60;22.50;;;;;;;3.49;100.00;102459.59;5324405;28;20202;-86
2022/01/27 04:49:38;;;;;;;38.97;20.90;;;;;;;3.44;100.00;102457.16;5326313;28;20090;-86
2022/01/27 04:52:10;;;;;;;42.33;21.17;;;;;;;3.34;100.00;102453.13;5327775;27;20028;-85
2022/01/27 04:54:57;;;;;;;33.42;20.02;;;;;;;3.34;100.00;102450.47;5327578;27;20017;-86
2022/01/27 04:57:29;;;;;;;34.50;21.73;;;;;;;3.26;100.00;102452.53;5326696;27;20083;-86
2022/01/27 05:00:01;;;;;;;33.30;21.70;;;;;;;3.24;100.00;102444.66;5325923;27;20088;-86
2022/01/27 05:05:04;;;;;;;39.22;23.77;;;;;;;3.25;100.00;102416.53;5325354;27;20377;-86
2022/01/27 05:07:36;;;;;;;38.80;22.98;;;;;;;3.20;100.00;102432.53;5324786;27;20038;-86
2022/01/27 05:10:12;;;;;;;40.22;21.55;;;;;;;3.27;100.00;102422.63;5324914;27;20020;-85
2022/01/27 05:12:48;;;;;;;39.22;24.13;;;;;;;3.32;100.00;102431.22;5327359;27;20035;-86
2022/01/27 05:15:19;;;;;;;39.53;23.52;;;;;;;3.30;100.00;102417.22;5327010;27;20413;-85
2022/01/27 05:17:51;;;;;;;40.03;22.45;;;;;;;3.25;100.00;102419.19;5328620;28;20059;-86
2022/01/27 05:20:22;;;;;;;38.42;22.00;;;;;;;3.26;100.00;102410.31;5327923;27;20013;-85
2022/01/27 05:22:53;;;;;;;35.78;20.83;;;;;;;3.19;100.00;102412.31;5327486;27;20387;-86
2022/01/27 05:25:25;;;;;;;39.78;24.08;;;;;;;3.20;100.00;102412.28;5326750;27;20036;-86
2022/01/27 05:27:56;;;;;;;39.72;24.08;;;;;;;3.38;100.00;102417.78;5325652;28;20073;-86
2022/01/27 05:30:27;;;;;;;34.83;22.52;;;;;;;3.45;100.00;102413.16;5326996;27;20384;-86
2022/01/27 05:32:59;;;;;;;37.08;22.80;;;;;;;3.48;100.00;102392.78;5335143;28;20031;-86
2022/01/27 05:35:31;;;;;;;38.65;23.40;;;;;;;3.52;100.00;102389.09;5320755;27;20063;-86
2022/01/27 05:38:03;;;;;;;41.20;21.05;;;;;;;3.54;100.00;102394.31;5325736;27;20032;-86
2022/01/27 05:40:34;;;;;;;36.67;20.05;;;;;;;3.58;100.00;102385.38;5328808;27;20115;-86
2022/01/27 05:43:06;;;;;;;37.95;22.08;;;;;;;3.52;100.00;102365.34;5326618;27;20021;-86
2022/01/27 05:45:38;;;;;;;36.38;22.45;;;;;;;3.44;100.00;102353.38;5328043;27;20032;-85
2022/01/27 05:48:10;;;;;;;32.97;20.35;;;;;;;3.75;100.00;102401.44;5327645;27;20028;-86
2022/01/27 05:50:44;;;;;;;38.00;22.95;;;;;;;3.75;100.00;102390.00;5326648;28;20105;-85
2022/01/27 05:53:15;;;;;;;28.35;16.20;;;;;;;3.75;100.00;102388.22;5326333;28;20099;-86
2022/01/27 05:55:47;;;;;;;35.42;23.10;;;;;;;3.77;100.00;102377.63;5322866;28;20116;-86
2022/01/27 05:58:19;;;;;;;36.38;21.30;;;;;;;3.80;100.00;102372.19;5342256;27;20020;-85
2022/01/27 06:00:51;;;;;;;35.95;22.58;;;;;;;3.92;100.00;102391.97;5327078;27;20544;-85
2022/01/27 06:03:22;;;;;;;34.92;19.85;;;;;;;3.93;100.00;102389.28;5326489;27;20465;-85
2022/01/27 06:05:54;;;;;;;42.00;21.75;;;;;;;4.01;100.00;102377.53;5327175;27;20131;-85
2022/01/27 06:08:28;;;;;;;37.33;20.13;;;;;;;4.04;100.00;102375.63;5324535;27;20055;-86
2022/01/27 06:11:00;;;;;;;39.90;22.30;;;;;;;4.09;100.00;102384.22;5324398;28;20036;-86
2022/01/27 06:13:31;;;;;;;32.17;16.90;;;;;;;4.08;100.00;102371.09;5326115;27;20027;-86
2022/01/27 06:16:10;;;;;;;37.63;22.33;;;;;;;4.25;100.00;102370.41;5326331;27;20024;-85
2022/01/27 06:18:42;;;;;;;38.53;20.60;;;;;;;4.11;100.00;102363.88;5324777;27;20020;-85
2022/01/27 06:21:13;;;;;;;39.45;21.60;;;;;;;4.14;100.00;102376.13;5326195;27;20509;-86
2022/01/27 06:23:45;;;;;;;36.45;20.85;;;;;;;4.18;100.00;102375.06;5325575;27;20024;-85
2022/01/27 06:26:16;;;;;;;37.92;23.40;;;;;;;4.13;100.00;102372.59;5324749;27;20101;-85
2022/01/27 06:28:47;;;;;;;40.78;22.92;;;;;;;3.87;100.00;102322.66;5323414;28;20155;-85
2022/01/27 06:31:19;;;;;;;34.03;20.25;;;;;;;3.92;100.00;102349.72;5322972;28;20468;-85
2022/01/27 06:33:52;;;;;;;37.30;20.08;;;;;;;3.95;100.00;102346.97;5324252;27;20193;-85
2022/01/27 06:36:24;;;;;;;42.60;22.92;;;;;;;3.97;100.00;102345.97;5317249;27;20476;-85
2022/01/27 06:38:55;;;;;;;38.75;22.90;;;;;;;4.01;100.00;102364.34;5326985;27;20020;-86
2022/01/27 06:41:26;;;;;;;38.90;21.90;;;;;;;3.91;100.00;102340.06;5326942;27;20051;-85
2022/01/27 06:44:01;;;;;;;41.08;23.00;;;;;;;3.81;100.00;102323.78;5325280;27;20040;-85
2022/01/27 06:46:35;;;;;;;35.92;21.65;;;;;;;3.81;100.00;102315.84;5325300;27;20036;-85
2022/01/27 06:49:07;;;;;;;37.80;22.48;;;;;;;4.12;100.00;102341.84;5326548;27;20099;-85
2022/01/27 06:51:39;;;;;;;45.50;23.08;;;;;;;4.09;100.00;102343.75;5325671;27;20028;-86
2022/01/27 06:54:10;;;;;;;40.08;22.83;;;;;;;4.07;100.00;102337.69;5322740;27;20050;-86
2022/01/27 06:56:42;;;;;;;42.28;23.15;;;;;;;4.14;100.00;102345.28;5324947;27;20024;-85
2022/01/27 06:59:14;;;;;;;48.30;25.75;;;;;;;4.15;100.00;102359.34;5326381;27;20079;-85
2022/01/27 07:01:45;;;;;;;38.38;23.02;;;;;;;4.14;100.00;102350.56;5326826;28;20525;-86
2022/01/27 07:04:17;;;;;;;40.65;23.27;;;;;;;4.17;100.00;102336.34;5326735;27;20421;-85
2022/01/27 07:06:49;;;;;;;35.97;22.58;;;;;;;4.16;100.00;102345.22;5325704;27;20036;-85
2022/01/27 07:09:21;;;;;;;40.83;23.65;;;;;;;4.23;100.00;102337.91;5325534;27;20034;-86
2022/01/27 07:11:52;;;;;;;43.10;21.70;;;;;;;4.17;100.00;102341.63;5326393;27;20365;-85
2022/01/27 07:14:24;;;;;;;42.38;23.25;;;;;;;4.09;100.00;102336.69;5325751;27;20027;-85
2022/01/27 07:16:57;;;;;;;42.42;24.10;;;;;;;4.16;100.00;102330.22;5324166;27;20433;-85
2022/01/27 07:19:28;;;;;;;44.45;25.48;;;;;;;4.25;100.00;102342.19;5325034;28;20151;-86
2022/01/27 07:22:02;;;;;;;41.25;25.73;;;;;;;4.28;100.00;102351.78;5321816;27;41797;-85
2022/01/27 07:24:33;;;;;;;38.17;24.65;;;;;;;4.37;100.00;102359.31;5321779;27;20556;-86
2022/01/27 07:27:05;;;;;;;40.40;20.63;;;;;;;4.40;100.00;102340.69;5322771;27;20166;-86
2022/01/27 07:29:37;;;;;;;39.05;23.52;;;;;;;4.33;100.00;102353.31;5324889;27;20368;-84
2022/01/27 07:32:08;;;;;;;39.80;23.58;;;;;;;4.42;100.00;102365.25;5325085;27;20470;-85
2022/01/27 07:34:39;;;;;;;40.42;21.98;;;;;;;4.37;100.00;102353.19;5319997;27;20374;-85
2022/01/27 07:37:11;;;;;;;38.45;22.20;;;;;;;4.39;100.00;102354.81;5325879;27;20457;-86
2022/01/27 07:39:42;;;;;;;41.50;20.88;;;;;;;4.49;100.00;102360.56;5324997;27;20480;-86
2022/01/27 07:42:13;;;;;;;42.45;22.80;;;;;;;4.36;100.00;102357.56;5325545;27;20372;-85
2022/01/27 07:44:45;;;;;;;42.03;25.15;;;;;;;4.44;100.00;102354.63;5322691;27;41715;-86
2022/01/27 07:47:16;;;;;;;43.42;25.05;;;;;;;4.51;100.00;102358.72;5343264;27;20016;-86
2022/01/27 07:49:47;;;;;;;42.83;26.23;;;;;;;4.45;100.00;102336.06;5324168;27;20054;-85
2022/01/27 07:52:20;;;;;;;42.65;24.48;;;;;;;4.50;100.00;102355.19;5325466;27;20388;-86
2022/01/27 07:54:52;;;;;;;44.65;28.30;;;;;;;4.52;100.00;102363.06;5325752;28;20387;-86
2022/01/27 07:57:23;;;;;;;44.17;25.25;;;;;;;4.44;100.00;102362.56;5323152;27;20042;-86
2022/01/27 07:59:55;;;;;;;50.10;26.98;;;;;;;4.27;100.00;102356.19;5325386;27;20384;-86
2022/01/27 08:02:26;;;;;;;44.38;23.23;;;;;;;4.34;100.00;102370.84;5323876;27;20035;-86
2022/01/27 08:04:57;;;;;;;45.85;24.50;;;;;;;4.38;100.00;102381.28;5324384;27;20143;-85
2022/01/27 08:07:29;;;;;;;53.13;31.55;;;;;;;4.06;100.00;102331.53;5316014;27;20016;-86
2022/01/27 08:10:00;;;;;;;60.10;29.20;;;;;;;4.17;100.00;102368.06;5310172;27;20032;-86
2022/01/27 08:12:32;;;;;;;55.70;29.00;;;;;;;4.13;100.00;102359.41;5303416;28;20028;-86
2022/01/27 08:15:03;;;;;;;59.22;28.73;;;;;;;4.08;100.00;102357.88;5314492;28;20028;-86
2022/01/27 08:17:35;;;;;;;62.90;31.33;;;;;;;4.12;100.00;102362.09;5323454;28;20024;-86
2022/01/27 08:20:07;;;;;;;69.57;36.22;;;;;;;4.18;100.00;102366.28;5325010;28;20081;-85
2022/01/27 08:22:43;;;;;;;76.57;38.42;;;;;;;4.19;100.00;102358.31;5324560;27;20021;-86
2022/01/27 08:25:15;;;;;;;66.47;32.00;;;;;;;4.24;100.00;102360.75;5325337;27;20028;-85
2022/01/27 08:27:49;;;;;;;72.13;34.97;;;;;;;4.19;100.00;102353.03;5323312;28;20016;-86
2022/01/27 08:30:24;;;;;;;65.50;36.10;;;;;;;4.16;100.00;102359.28;5324679;27;20019;-86
2022/01/27 08:33:04;;;;;;;63.67;34.83;;;;;;;4.26;100.00;102365.06;5323409;28;20020;-86
2022/01/27 08:35:36;;;;;;;67.97;33.05;;;;;;;4.19;100.00;102344.22;5325002;27;20016;-86
2022/01/27 08:38:07;;;;;;;72.57;35.78;;;;;;;4.26;100.00;102357.13;5323575;28;20448;-85
2022/01/27 08:40:39;;;;;;;74.72;39.70;;;;;;;4.14;100.00;102353.22;5325326;27;20100;-86
2022/01/27 08:43:11;;;;;;;72.88;37.60;;;;;;;4.19;100.00;102345.09;5323688;28;20024;-86
2022/01/27 08:45:42;;;;;;;79.93;39.08;;;;;;;4.21;100.00;102358.22;5319174;27;20082;-86
2022/01/27 08:48:18;;;;;;;73.53;40.00;;;;;;;4.19;100.00;102341.59;5307057;28;20020;-85
2022/01/27 08:50:59;;;;;;;70.85;34.95;;;;;;;4.04;100.00;102327.25;5305670;28;20020;-84
2022/01/27 08:53:30;;;;;;;75.85;36.88;;;;;;;4.23;100.00;102353.75;5307120;28;20028;-86
2022/01/27 08:56:03;;;;;;;72.45;37.53;;;;;;;4.29;100.00;102354.34;5324813;28;20361;-87
2022/01/27 08:58:34;;;;;;;76.07;37.05;;;;;;;4.32;100.00;102346.28;5321679;27;20044;-88
2022/01/27 09:01:31;;;;;;;78.82;38.83;;;;;;;4.30;100.00;102329.66;5330817;27;20448;-88
2022/01/27 09:04:11;;;;;;;76.45;41.80;;;;;;;4.51;100.00;102358.72;5317206;28;20037;-93
2022/01/27 09:06:42;;;;;;;70.75;38.08;;;;;;;4.58;100.00;102365.47;5316554;28;20052;-87
2022/01/27 09:09:22;;;;;;;80.50;36.05;;;;;;;4.46;100.00;102340.41;5315365;28;20120;-93
2022/01/27 09:12:00;;;;;;;81.85;36.25;;;;;;;4.62;100.00;102361.75;5314865;28;20036;-91
2022/01/27 09:14:32;;;;;;;80.18;43.25;;;;;;;4.66;100.00;102360.72;5318405;28;20147;-91
2022/01/27 09:17:14;;;;;;;74.10;37.35;;;;;;;4.75;100.00;102351.47;5318398;28;20021;-93
2022/01/27 09:19:46;;;;;;;78.60;36.63;;;;;;;4.58;100.00;102317.88;5311830;28;20021;-89
2022/01/27 09:22:35;;;;;;;77.00;39.28;;;;;;;4.57;100.00;102318.78;5316136;28;20048;-93
2022/01/27 09:25:13;;;;;;;75.25;37.85;;;;;;;4.73;100.00;102341.00;5312697;28;20079;-89
2022/01/27 09:27:48;;;;;;;69.13;34.55;;;;;;;4.87;100.00;102356.25;5310607;28;20017;-90
2022/01/27 09:30:19;;;;;;;68.63;35.15;;;;;;;4.67;100.00;102312.19;5311066;28;20025;-88
2022/01/27 09:32:51;;;;;;;65.45;36.28;;;;;;;4.83;100.00;102348.53;5309475;28;20027;-86
2022/01/27 09:35:22;;;;;;;59.92;33.13;;;;;;;4.88;100.00;102355.31;5310853;28;20029;-87
2022/01/27 09:37:54;;;;;;;67.32;39.15;;;;;;;4.87;100.00;102358.91;5309462;28;20017;-87
2022/01/27 09:40:29;;;;;;;61.00;34.28;;;;;;;4.88;100.00;102354.47;5309671;28;20021;-88
2022/01/27 09:43:03;;;;;;;65.68;34.25;;;;;;;4.88;100.00;102354.47;5309369;28;20473;-88
2022/01/27 09:45:38;;;;;;;59.50;31.85;;;;;;;4.93;100.00;102350.69;5307208;28;20028;-86
2022/01/27 09:48:15;;;;;;;66.57;38.75;;;;;;;5.00;100.00;102366.28;5309084;28;20090;-86
2022/01/27 09:50:50;;;;;;;51.10;29.17;;;;;;;4.97;100.00;102361.13;5307353;27;20070;-86
2022/01/27 09:53:21;;;;;;;57.67;33.97;;;;;;;4.99;100.00;102369.84;5324386;28;20016;-85
2022/01/27 09:55:52;;;;;;;64.32;37.40;;;;;;;4.99;100.00;102362.75;5327668;27;20031;-85
2022/01/27 09:58:24;;;;;;;59.88;37.50;;;;;;;5.00;100.00;102367.13;5325794;27;20111;-85
2022/01/27 10:00:55;;;;;;;60.15;36.13;;;;;;;4.93;100.00;102365.69;5326910;27;20023;-85
2022/01/27 10:03:28;;;;;;;60.08;34.58;;;;;;;4.93;100.00;102365.69;5327459;27;20101;-85
2022/01/27 10:06:13;;;;;;;49.75;29.17;;;;;;;4.99;100.00;102367.19;5327104;27;20036;-85
2022/01/27 10:08:45;;;;;;;56.20;35.33;;;;;;;5.05;100.00;102372.19;5305317;28;20128;-85
2022/01/27 10:11:19;;;;;;;59.25;34.88;;;;;;;5.03;100.00;102377.59;5320549;28;20107;-85
2022/01/27 10:13:50;;;;;;;62.83;37.03;;;;;;;5.02;100.00;102373.22;5327454;27;20119;-84
2022/01/27 10:16:35;;;;;;;56.58;32.60;;;;;;;5.13;100.00;102371.88;5327107;27;20118;-84
2022/01/27 10:19:08;;;;;;;61.05;35.38;;;;;;;5.14;100.00;102378.84;5327172;27;20028;-84
2022/01/27 10:21:39;;;;;;;55.00;35.78;;;;;;;5.09;100.00;102368.50;5326386;27;20035;-85
2022/01/27 10:24:24;;;;;;;58.60;39.50;;;;;;;5.17;100.00;102370.78;5323457;27;20389;-85
2022/01/27 10:28:10;;;;;;;59.10;36.65;;;;;;;5.19;100.00;102372.44;5310417;28;20036;-85
2022/01/27 10:32:59;;;;;;;53.90;31.67;;;;;;;5.22;100.00;102355.56;5314386;27;20102;-85
2022/01/27 10:35:31;;;;;;;60.65;33.85;;;;;;;5.12;100.00;102355.16;5310695;28;20477;-85
2022/01/27 10:38:08;;;;;;;54.00;35.75;;;;;;;5.22;100.00;102384.66;5325970;28;20028;-84
2022/01/27 10:40:42;;;;;;;55.08;31.50;;;;;;;5.31;100.00;102360.44;5324095;27;20078;-85
2022/01/27 10:43:17;;;;;;;49.47;34.03;;;;;;;5.34;100.00;102364.72;5319889;27;20028;-84
2022/01/27 10:46:07;;;;;;;54.00;38.83;;;;;;;5.33;100.00;102358.59;5320877;28;20430;-84
2022/01/27 10:49:11;;;;;;;54.72;36.25;;;;;;;5.28;100.00;102363.25;5315359;28;20055;-85
2022/01/27 10:51:50;;;;;;;58.38;37.03;;;;;;;5.35;100.00;102363.78;5325771;27;20050;-85
2022/01/27 10:54:37;;;;;;;53.53;30.88;;;;;;;5.33;100.00;102355.94;5325229;28;20109;-86
2022/01/27 10:57:11;;;;;;;54.00;35.60;;;;;;;5.39;100.00;102371.53;5326502;27;20487;-86
2022/01/27 10:59:43;;;;;;;55.97;34.35;;;;;;;5.41;100.00;102369.66;5325710;27;20022;-86
2022/01/27 11:02:14;;;;;;;47.88;32.10;;;;;;;5.43;100.00;102349.28;5320470;28;20539;-86
2022/01/27 11:04:46;;;;;;;51.38;31.98;;;;;;;5.47;100.00;102366.75;5306630;27;20198;-86
2022/01/27 11:07:23;;;;;;;50.78;31.55;;;;;;;5.45;100.00;102358.03;5313077;28;20408;-85
2022/01/27 11:09:58;;;;;;;36.97;24.15;;;;;;;5.65;100.00;102356.22;5325704;27;20024;-85
2022/01/27 11:12:29;;;;;;;44.25;33.25;;;;;;;5.57;100.00;102351.25;5325697;27;20024;-85
2022/01/27 11:15:01;;;;;;;44.03;29.55;;;;;;;5.61;100.00;102344.03;5325825;27;20023;-85
2022/01/27 11:17:36;;;;;;;50.15;31.10;;;;;;;5.68;100.00;102346.34;5324511;28;20429;-84
2022/01/27 11:28:03;;;;;;;43.92;29.35;;;;;;;5.92;100.00;102335.47;5303680;28;20036;-85
2022/01/27 11:31:12;;;;;;;43.67;27.42;;;;;;;6.10;100.00;102323.16;5303828;28;20032;-85
2022/01/27 11:33:58;;;;;;;46.78;28.63;;;;;;;6.10;100.00;102330.22;5302714;28;20024;-85
2022/01/27 11:36:30;;;;;;;44.58;29.10;;;;;;;6.14;100.00;102323.84;5303975;28;20077;-85
2022/01/27 11:39:08;;;;;;;39.55;27.70;;;;;;;6.22;100.00;102316.34;5302825;28;20017;-85
2022/01/27 11:41:50;;;;;;;43.45;27.58;;;;;;;6.18;100.00;102323.59;5313915;28;20023;-84
2022/01/27 11:44:36;;;;;;;44.25;29.83;;;;;;;6.24;100.00;102322.41;5318914;28;20060;-86
2022/01/27 11:47:11;;;;;;;46.50;28.85;;;;;;;6.31;100.00;102313.25;5317829;28;20025;-85
2022/01/27 11:50:00;;;;;;;42.78;27.95;;;;;;;6.29;100.00;102308.94;5304477;28;20035;-85
2022/01/27 11:52:34;;;;;;;46.22;27.00;;;;;;;6.35;100.00;102303.34;5309413;28;20024;-85
2022/01/27 11:55:24;;;;;;;40.78;27.38;;;;;;;6.36;100.00;102313.84;5315563;28;20028;-85
2022/01/27 11:57:58;;;;;;;44.92;27.85;;;;;;;6.36;100.00;102313.84;5320162;27;40292;-85
2022/01/27 12:00:30;;;;;;;38.90;24.58;;;;;;;6.43;100.00;102314.38;5320881;27;20027;-85
2022/01/27 12:03:01;;;;;;;39.95;24.58;;;;;;;6.39;100.00;102313.69;5320271;28;20080;-85
2022/01/27 12:05:39;;;;;;;39.90;25.05;;;;;;;6.37;100.00;102309.41;5313068;27;20399;-85
2022/01/27 12:08:14;;;;;;;18.55;12.40;;;;;;;6.49;100.00;102314.09;5322898;28;20112;-85
2022/01/27 12:10:52;;;;;;;37.97;25.00;;;;;;;6.36;100.00;102303.25;5323293;27;20028;-85
2022/01/27 12:19:02;;;;;;;33.95;20.90;;;;;;;6.58;100.00;102310.09;5310545;28;20484;-85
2022/01/27 12:21:43;;;;;;;33.50;21.92;;;;;;;6.52;100.00;102307.75;5312621;27;20036;-85
2022/01/27 12:24:22;;;;;;;31.85;19.95;;;;;;;6.58;100.00;102302.13;5318770;28;20025;-86
2022/01/27 12:27:01;;;;;;;36.33;19.35;;;;;;;6.60;100.00;102293.16;5303862;28;20029;-86